sensor_id;sensor_type;location;lat;lon;timestamp;pressure;altitude;pressure_sealevel;temperature
76381;BMP280;65202;52.520;10.528;2023-03-14T00:00:16;98538.16;;;12.08
76381;BMP280;65202;52.520;10.528;2023-03-14T00:02:44;98536.47;;;12.04
76381;BMP280;65202;52.520;10.528;2023-03-14T00:05:12;98537.28;;;11.98
76381;BMP280;65202;52.520;10.528;2023-03-14T00:07:39;98528.97;;;12.05
76381;BMP280;65202;52.520;10.528;2023-03-14T00:10:10;98535.66;;;12.08
76381;BMP280;65202;52.520;10.528;2023-03-14T00:12:41;98528.13;;;12.05
76381;BMP280;65202;52.520;10.528;2023-03-14T00:15:09;98507.22;;;12.01
76381;BMP280;65202;52.520;10.528;2023-03-14T00:17:38;98490.50;;;12.03
76381;BMP280;65202;52.520;10.528;2023-03-14T00:20:06;98485.50;;;12.06
76381;BMP280;65202;52.520;10.528;2023-03-14T00:22:38;98472.09;;;11.98
76381;BMP280;65202;52.520;10.528;2023-03-14T00:25:07;98463.78;;;12.05
76381;BMP280;65202;52.520;10.528;2023-03-14T00:27:36;98452.88;;;12.03
76381;BMP280;65202;52.520;10.528;2023-03-14T00:30:05;98460.44;;;12.08
76381;BMP280;65202;52.520;10.528;2023-03-14T00:32:34;98459.56;;;11.97
76381;BMP280;65202;52.520;10.528;2023-03-14T00:35:02;98468.72;;;11.80
76381;BMP280;65202;52.520;10.528;2023-03-14T00:37:30;98444.44;;;11.64
76381;BMP280;65202;52.520;10.528;2023-03-14T00:39:57;98451.16;;;11.85
76381;BMP280;65202;52.520;10.528;2023-03-14T00:42:25;98467.06;;;11.84
76381;BMP280;65202;52.520;10.528;2023-03-14T00:44:52;98493.78;;;11.85
76381;BMP280;65202;52.520;10.528;2023-03-14T00:47:20;98498.78;;;11.79
76381;BMP280;65202;52.520;10.528;2023-03-14T00:49:47;98472.91;;;11.89
76381;BMP280;65202;52.520;10.528;2023-03-14T00:52:14;98496.28;;;11.79
76381;BMP280;65202;52.520;10.528;2023-03-14T00:54:41;98505.50;;;11.94
76381;BMP280;65202;52.520;10.528;2023-03-14T00:57:09;98505.50;;;11.87
76381;BMP280;65202;52.520;10.528;2023-03-14T00:59:36;98503.81;;;11.82
76381;BMP280;65202;52.520;10.528;2023-03-14T01:02:03;98513.88;;;11.88
76381;BMP280;65202;52.520;10.528;2023-03-14T01:04:30;98522.22;;;11.88
76381;BMP280;65202;52.520;10.528;2023-03-14T01:06:58;98518.03;;;11.86
76381;BMP280;65202;52.520;10.528;2023-03-14T01:09:25;98517.19;;;11.84
76381;BMP280;65202;52.520;10.528;2023-03-14T01:11:52;98510.53;;;11.94
76381;BMP280;65202;52.520;10.528;2023-03-14T01:14:19;98502.19;;;11.93
76381;BMP280;65202;52.520;10.528;2023-03-14T01:16:46;98481.28;;;11.91
76381;BMP280;65202;52.520;10.528;2023-03-14T01:19:14;98481.28;;;11.92
76381;BMP280;65202;52.520;10.528;2023-03-14T01:21:41;98469.63;;;12.03
76381;BMP280;65202;52.520;10.528;2023-03-14T01:24:11;98471.25;;;11.92
76381;BMP280;65202;52.520;10.528;2023-03-14T01:26:38;98459.59;;;12.00
76381;BMP280;65202;52.520;10.528;2023-03-14T01:29:05;98477.13;;;11.95
76381;BMP280;65202;52.520;10.528;2023-03-14T01:31:33;98458.72;;;11.98
76381;BMP280;65202;52.520;10.528;2023-03-14T01:34:00;98462.06;;;11.94
76381;BMP280;65202;52.520;10.528;2023-03-14T01:36:27;98469.59;;;11.95
76381;BMP280;65202;52.520;10.528;2023-03-14T01:38:57;98472.91;;;11.89
76381;BMP280;65202;52.520;10.528;2023-03-14T01:41:25;98456.19;;;11.80
76381;BMP280;65202;52.520;10.528;2023-03-14T01:43:53;98440.34;;;11.92
76381;BMP280;65202;52.520;10.528;2023-03-14T01:46:24;98426.97;;;11.84
76381;BMP280;65202;52.520;10.528;2023-03-14T01:51:39;98399.38;;;11.87
76381;BMP280;65202;52.520;10.528;2023-03-14T01:54:19;98412.75;;;11.87
76381;BMP280;65202;52.520;10.528;2023-03-14T01:56:58;98422.78;;;11.81
76381;BMP280;65202;52.520;10.528;2023-03-14T01:59:32;98446.97;;;11.81
76381;BMP280;65202;52.520;10.528;2023-03-14T02:02:02;98458.66;;;11.76
76381;BMP280;65202;52.520;10.528;2023-03-14T02:04:32;98442.00;;;11.85
76381;BMP280;65202;52.520;10.528;2023-03-14T02:07:13;98426.09;;;11.83
76381;BMP280;65202;52.520;10.528;2023-03-14T02:09:57;98425.25;;;11.77
76381;BMP280;65202;52.520;10.528;2023-03-14T02:12:26;98434.47;;;11.78
76381;BMP280;65202;52.520;10.528;2023-03-14T02:14:54;98434.47;;;11.76
76381;BMP280;65202;52.520;10.528;2023-03-14T02:17:22;98426.06;;;11.70
76381;BMP280;65202;52.520;10.528;2023-03-14T02:22:40;98415.22;;;11.69
76381;BMP280;65202;52.520;10.528;2023-03-14T02:25:21;98411.91;;;11.78
76381;BMP280;65202;52.520;10.528;2023-03-14T02:27:58;98413.53;;;11.67
76381;BMP280;65202;52.520;10.528;2023-03-14T02:30:29;98412.72;;;11.74
76381;BMP280;65202;52.520;10.528;2023-03-14T02:33:04;98396.84;;;11.72
76381;BMP280;65202;52.520;10.528;2023-03-14T02:35:44;98406.84;;;11.63
76381;BMP280;65202;52.520;10.528;2023-03-14T02:41:38;98401.81;;;11.63
76381;BMP280;65202;52.520;10.528;2023-03-14T02:44:05;98419.38;;;11.66
76381;BMP280;65202;52.520;10.528;2023-03-14T02:46:33;98424.38;;;11.63
76381;BMP280;65202;52.520;10.528;2023-03-14T02:49:07;98420.25;;;11.74
76381;BMP280;65202;52.520;10.528;2023-03-14T02:51:37;98410.16;;;11.50
76381;BMP280;65202;52.520;10.528;2023-03-14T02:54:07;98405.16;;;11.65
76381;BMP280;65202;52.520;10.528;2023-03-14T02:56:34;98400.97;;;11.56
76381;BMP280;65202;52.520;10.528;2023-03-14T02:59:03;98402.66;;;11.59
76381;BMP280;65202;52.520;10.528;2023-03-14T03:01:31;98398.50;;;11.64
76381;BMP280;65202;52.520;10.528;2023-03-14T03:03:58;98402.63;;;11.56
76381;BMP280;65202;52.520;10.528;2023-03-14T03:06:25;98390.16;;;11.66
76381;BMP280;65202;52.520;10.528;2023-03-14T03:08:53;98387.59;;;11.56
76381;BMP280;65202;52.520;10.528;2023-03-14T03:11:20;98383.44;;;11.61
76381;BMP280;65202;52.520;10.528;2023-03-14T03:13:47;98387.63;;;11.62
76381;BMP280;65202;52.520;10.528;2023-03-14T03:16:14;98381.69;;;11.46
76381;BMP280;65202;52.520;10.528;2023-03-14T03:18:42;98383.38;;;11.49
76381;BMP280;65202;52.520;10.528;2023-03-14T03:21:09;98387.59;;;11.53
76381;BMP280;65202;52.520;10.528;2023-03-14T03:23:36;98379.25;;;11.52
76381;BMP280;65202;52.520;10.528;2023-03-14T03:26:04;98372.56;;;11.54
76381;BMP280;65202;52.520;10.528;2023-03-14T03:28:31;98380.03;;;11.47
76381;BMP280;65202;52.520;10.528;2023-03-14T03:30:58;98377.50;;;11.36
76381;BMP280;65202;52.520;10.528;2023-03-14T03:33:25;98383.34;;;11.40
76381;BMP280;65202;52.520;10.528;2023-03-14T03:35:53;98374.19;;;11.46
76381;BMP280;65202;52.520;10.528;2023-03-14T03:38:20;98367.41;;;11.25
76381;BMP280;65202;52.520;10.528;2023-03-14T03:40:47;98369.94;;;11.26
76381;BMP280;65202;52.520;10.528;2023-03-14T03:43:15;98360.81;;;11.41
76381;BMP280;65202;52.520;10.528;2023-03-14T03:45:42;98363.28;;;11.32
76381;BMP280;65202;52.520;10.528;2023-03-14T03:48:09;98361.63;;;11.40
76381;BMP280;65202;52.520;10.528;2023-03-14T03:50:36;98361.63;;;11.39
76381;BMP280;65202;52.520;10.528;2023-03-14T03:53:04;98352.41;;;11.33
76381;BMP280;65202;52.520;10.528;2023-03-14T03:55:31;98349.97;;;11.48
76381;BMP280;65202;52.520;10.528;2023-03-14T03:57:58;98351.63;;;11.42
76381;BMP280;65202;52.520;10.528;2023-03-14T04:00:25;98349.94;;;11.38
76381;BMP280;65202;52.520;10.528;2023-03-14T04:02:52;98356.63;;;11.37
76381;BMP280;65202;52.520;10.528;2023-03-14T04:05:20;98359.09;;;11.30
76381;BMP280;65202;52.520;10.528;2023-03-14T04:07:47;98358.25;;;11.25
76381;BMP280;65202;52.520;10.528;2023-03-14T04:10:14;98356.53;;;11.18
76381;BMP280;65202;52.520;10.528;2023-03-14T04:12:42;98354.88;;;11.19
76381;BMP280;65202;52.520;10.528;2023-03-14T04:15:09;98348.22;;;11.24
76381;BMP280;65202;52.520;10.528;2023-03-14T04:17:37;98349.03;;;11.15
76381;BMP280;65202;52.520;10.528;2023-03-14T04:20:04;98341.50;;;11.18
76381;BMP280;65202;52.520;10.528;2023-03-14T04:22:32;98343.94;;;11.02
76381;BMP280;65202;52.520;10.528;2023-03-14T04:24:59;98355.69;;;11.10
76381;BMP280;65202;52.520;10.528;2023-03-14T04:27:26;98353.19;;;11.10
76381;BMP280;65202;52.520;10.528;2023-03-14T04:29:53;98362.28;;;10.99
76381;BMP280;65202;52.520;10.528;2023-03-14T04:32:21;98361.47;;;11.03
76381;BMP280;65202;52.520;10.528;2023-03-14T04:34:48;98363.97;;;11.00
76381;BMP280;65202;52.520;10.528;2023-03-14T04:37:15;98366.44;;;10.94
76381;BMP280;65202;52.520;10.528;2023-03-14T04:39:42;98367.25;;;10.93
76381;BMP280;65202;52.520;10.528;2023-03-14T04:42:10;98377.25;;;10.89
76381;BMP280;65202;52.520;10.528;2023-03-14T04:44:37;98370.56;;;10.88
76381;BMP280;65202;52.520;10.528;2023-03-14T04:47:04;98364.72;;;10.86
76381;BMP280;65202;52.520;10.528;2023-03-14T04:49:31;98358.88;;;10.82
76381;BMP280;65202;52.520;10.528;2023-03-14T04:51:58;98357.19;;;10.81
76381;BMP280;65202;52.520;10.528;2023-03-14T04:54:26;98350.50;;;10.80
76381;BMP280;65202;52.520;10.528;2023-03-14T04:56:53;98333.81;;;10.76
76381;BMP280;65202;52.520;10.528;2023-03-14T04:59:20;98337.19;;;10.84
76381;BMP280;65202;52.520;10.528;2023-03-14T05:01:47;98334.63;;;10.72
76381;BMP280;65202;52.520;10.528;2023-03-14T05:04:16;98332.97;;;10.74
76381;BMP280;65202;52.520;10.528;2023-03-14T05:06:44;98334.53;;;10.61
76381;BMP280;65202;52.520;10.528;2023-03-14T05:09:11;98335.38;;;10.57
76381;BMP280;65202;52.520;10.528;2023-03-14T05:11:38;98339.53;;;10.56
76381;BMP280;65202;52.520;10.528;2023-03-14T05:14:05;98348.63;;;10.47
76381;BMP280;65202;52.520;10.528;2023-03-14T05:16:32;98331.94;;;10.44
76381;BMP280;65202;52.520;10.528;2023-03-14T05:19:00;98331.94;;;10.43
76381;BMP280;65202;52.520;10.528;2023-03-14T05:21:28;98333.63;;;10.45
76381;BMP280;65202;52.520;10.528;2023-03-14T05:23:57;98331.06;;;10.38
76381;BMP280;65202;52.520;10.528;2023-03-14T05:26:25;98329.38;;;10.37
76381;BMP280;65202;52.520;10.528;2023-03-14T05:28:52;98328.53;;;10.32
76381;BMP280;65202;52.520;10.528;2023-03-14T05:31:19;98328.56;;;10.41
76381;BMP280;65202;52.520;10.528;2023-03-14T05:33:46;98337.69;;;10.30
76381;BMP280;65202;52.520;10.528;2023-03-14T05:36:13;98339.34;;;10.31
76381;BMP280;65202;52.520;10.528;2023-03-14T05:38:41;98345.97;;;10.23
76381;BMP280;65202;52.520;10.528;2023-03-14T05:41:08;98339.25;;;10.17
76381;BMP280;65202;52.520;10.528;2023-03-14T05:43:35;98338.47;;;10.24
76381;BMP280;65202;52.520;10.528;2023-03-14T05:46:02;98325.13;;;10.22
76381;BMP280;65202;52.520;10.528;2023-03-14T05:48:30;98327.59;;;10.19
76381;BMP280;65202;52.520;10.528;2023-03-14T05:50:57;98330.97;;;10.26
76381;BMP280;65202;52.520;10.528;2023-03-14T05:53:26;98305.97;;;10.23
76381;BMP280;65202;52.520;10.528;2023-03-14T05:55:53;98310.97;;;10.23
76381;BMP280;65202;52.520;10.528;2023-03-14T05:58:24;98309.31;;;10.25
76381;BMP280;65202;52.520;10.528;2023-03-14T06:00:51;98327.63;;;10.25
76381;BMP280;65202;52.520;10.528;2023-03-14T06:03:18;98332.63;;;10.24
76381;BMP280;65202;52.520;10.528;2023-03-14T06:05:45;98340.94;;;10.20
76381;BMP280;65202;52.520;10.528;2023-03-14T06:08:12;98340.13;;;10.22
76381;BMP280;65202;52.520;10.528;2023-03-14T06:10:42;98348.47;;;10.23
76381;BMP280;65202;52.520;10.528;2023-03-14T06:13:09;98341.78;;;10.23
76381;BMP280;65202;52.520;10.528;2023-03-14T06:15:36;98335.97;;;10.23
76381;BMP280;65202;52.520;10.528;2023-03-14T06:18:04;98342.69;;;10.33
76381;BMP280;65202;52.520;10.528;2023-03-14T06:20:31;98345.38;;;10.57
76381;BMP280;65202;52.520;10.528;2023-03-14T06:22:59;98358.97;;;11.05
76381;BMP280;65202;52.520;10.528;2023-03-14T06:25:27;98343.28;;;11.40
76381;BMP280;65202;52.520;10.528;2023-03-14T06:27:54;98351.78;;;12.01
76381;BMP280;65202;52.520;10.528;2023-03-14T06:30:21;98340.91;;;12.17
76381;BMP280;65202;52.520;10.528;2023-03-14T06:32:48;98347.53;;;11.65
76381;BMP280;65202;52.520;10.528;2023-03-14T06:35:16;98353.22;;;11.19
76381;BMP280;65202;52.520;10.528;2023-03-14T06:37:43;98355.72;;;11.22
76381;BMP280;65202;52.520;10.528;2023-03-14T06:40:11;98354.88;;;11.20
76381;BMP280;65202;52.520;10.528;2023-03-14T06:42:45;98350.66;;;11.13
76381;BMP280;65202;52.520;10.528;2023-03-14T06:45:12;98358.38;;;11.58
76381;BMP280;65202;52.520;10.528;2023-03-14T06:47:40;98340.09;;;12.21
76381;BMP280;65202;52.520;10.528;2023-03-14T06:50:08;98351.78;;;12.19
76381;BMP280;65202;52.520;10.528;2023-03-14T06:52:36;98353.44;;;11.93
76381;BMP280;65202;52.520;10.528;2023-03-14T06:55:05;98362.59;;;11.74
76381;BMP280;65202;52.520;10.528;2023-03-14T06:57:32;98372.63;;;11.68
76381;BMP280;65202;52.520;10.528;2023-03-14T06:59:59;98374.31;;;11.76
76381;BMP280;65202;52.520;10.528;2023-03-14T07:02:26;98370.97;;;11.82
76381;BMP280;65202;52.520;10.528;2023-03-14T07:05:08;98371.03;;;12.10
76381;BMP280;65202;52.520;10.528;2023-03-14T07:07:37;98365.13;;;12.03
76381;BMP280;65202;52.520;10.528;2023-03-14T07:10:04;98374.38;;;12.16
76381;BMP280;65202;52.520;10.528;2023-03-14T07:12:32;98372.63;;;11.89
76381;BMP280;65202;52.520;10.528;2023-03-14T07:14:59;98385.19;;;12.02
76381;BMP280;65202;52.520;10.528;2023-03-14T07:17:43;98369.34;;;12.07
76381;BMP280;65202;52.520;10.528;2023-03-14T07:20:10;98364.31;;;12.01
76381;BMP280;65202;52.520;10.528;2023-03-14T07:22:37;98358.47;;;12.14
76381;BMP280;65202;52.520;10.528;2023-03-14T07:25:05;98367.59;;;11.72
76381;BMP280;65202;52.520;10.528;2023-03-14T07:27:32;98374.28;;;11.70
76381;BMP280;65202;52.520;10.528;2023-03-14T07:29:59;98385.97;;;11.77
76381;BMP280;65202;52.520;10.528;2023-03-14T07:32:27;98370.13;;;11.89
76381;BMP280;65202;52.520;10.528;2023-03-14T07:34:54;98375.19;;;12.12
76381;BMP280;65202;52.520;10.528;2023-03-14T07:37:21;98383.56;;;12.20
76381;BMP280;65202;52.520;10.528;2023-03-14T07:39:48;98368.50;;;12.35
76381;BMP280;65202;52.520;10.528;2023-03-14T07:42:15;98371.00;;;12.02
76381;BMP280;65202;52.520;10.528;2023-03-14T07:44:43;98367.69;;;12.14
76381;BMP280;65202;52.520;10.528;2023-03-14T07:47:10;98361.81;;;12.34
76381;BMP280;65202;52.520;10.528;2023-03-14T07:49:38;98363.47;;;11.99
76381;BMP280;65202;52.520;10.528;2023-03-14T07:52:05;98374.31;;;11.84
76381;BMP280;65202;52.520;10.528;2023-03-14T07:54:32;98371.75;;;11.55
76381;BMP280;65202;52.520;10.528;2023-03-14T07:56:59;98374.19;;;11.49
76381;BMP280;65202;52.520;10.528;2023-03-14T07:59:27;98364.16;;;11.48
76381;BMP280;65202;52.520;10.528;2023-03-14T08:01:55;98375.09;;;11.59
76381;BMP280;65202;52.520;10.528;2023-03-14T08:04:22;98371.75;;;11.63
76381;BMP280;65202;52.520;10.528;2023-03-14T08:06:49;98366.78;;;11.81
76381;BMP280;65202;52.520;10.528;2023-03-14T08:09:16;98366.78;;;11.72
76381;BMP280;65202;52.520;10.528;2023-03-14T08:11:43;98374.31;;;11.88
76381;BMP280;65202;52.520;10.528;2023-03-14T08:14:10;98376.78;;;11.73
76381;BMP280;65202;52.520;10.528;2023-03-14T08:16:38;98368.31;;;11.40
76381;BMP280;65202;52.520;10.528;2023-03-14T08:19:05;98361.63;;;11.40
76381;BMP280;65202;52.520;10.528;2023-03-14T08:21:32;98369.97;;;11.38
76381;BMP280;65202;52.520;10.528;2023-03-14T08:23:59;98377.44;;;11.25
76381;BMP280;65202;52.520;10.528;2023-03-14T08:26:27;98369.09;;;11.21
76381;BMP280;65202;52.520;10.528;2023-03-14T08:28:54;98374.16;;;11.42
76381;BMP280;65202;52.520;10.528;2023-03-14T08:31:22;98362.47;;;11.35
76381;BMP280;65202;52.520;10.528;2023-03-14T08:33:49;98361.66;;;11.45
76381;BMP280;65202;52.520;10.528;2023-03-14T08:36:19;98367.56;;;11.57
76381;BMP280;65202;52.520;10.528;2023-03-14T08:38:49;98366.69;;;11.48
76381;BMP280;65202;52.520;10.528;2023-03-14T08:41:17;98363.41;;;11.64
76381;BMP280;65202;52.520;10.528;2023-03-14T08:43:44;98385.09;;;11.51
76381;BMP280;65202;52.520;10.528;2023-03-14T08:46:11;98385.03;;;11.44
76381;BMP280;65202;52.520;10.528;2023-03-14T08:48:39;98391.66;;;11.31
76381;BMP280;65202;52.520;10.528;2023-03-14T08:51:11;98384.78;;;10.93
76381;BMP280;65202;52.520;10.528;2023-03-14T08:53:41;98394.78;;;10.89
76381;BMP280;65202;52.520;10.528;2023-03-14T08:56:09;98398.09;;;10.88
76381;BMP280;65202;52.520;10.528;2023-03-14T08:58:37;98399.69;;;10.78
76381;BMP280;65202;52.520;10.528;2023-03-14T09:01:05;98400.56;;;10.83
76381;BMP280;65202;52.520;10.528;2023-03-14T09:03:35;98398.06;;;10.83
76381;BMP280;65202;52.520;10.528;2023-03-14T09:06:03;98388.81;;;10.70
76381;BMP280;65202;52.520;10.528;2023-03-14T09:08:32;98387.19;;;10.75
76381;BMP280;65202;52.520;10.528;2023-03-14T09:11:00;98391.50;;;11.03
76381;BMP280;65202;52.520;10.528;2023-03-14T09:13:27;98385.63;;;10.98
76381;BMP280;65202;52.520;10.528;2023-03-14T09:15:57;98379.09;;;11.26
76381;BMP280;65202;52.520;10.528;2023-03-14T09:18:24;98391.66;;;11.31
76381;BMP280;65202;52.520;10.528;2023-03-14T09:20:51;98385.22;;;11.97
76381;BMP280;65202;52.520;10.528;2023-03-14T09:23:18;98377.69;;;12.09
76381;BMP280;65202;52.520;10.528;2023-03-14T09:25:46;98388.59;;;12.26
76381;BMP280;65202;52.520;10.528;2023-03-14T09:28:13;98388.50;;;11.71
76381;BMP280;65202;52.520;10.528;2023-03-14T09:30:40;98379.31;;;11.72
76381;BMP280;65202;52.520;10.528;2023-03-14T09:33:07;98383.44;;;11.58
76381;BMP280;65202;52.520;10.528;2023-03-14T09:35:35;98378.50;;;11.93
76381;BMP280;65202;52.520;10.528;2023-03-14T09:38:02;98384.34;;;11.76
76381;BMP280;65202;52.520;10.528;2023-03-14T09:40:33;98381.84;;;11.93
76381;BMP280;65202;52.520;10.528;2023-03-14T09:43:02;98376.88;;;12.07
76381;BMP280;65202;52.520;10.528;2023-03-14T09:45:35;98381.03;;;12.11
76381;BMP280;65202;52.520;10.528;2023-03-14T09:48:08;98376.03;;;12.52
76381;BMP280;65202;52.520;10.528;2023-03-14T09:50:53;98383.53;;;12.32
76381;BMP280;65202;52.520;10.528;2023-03-14T09:53:37;98381.06;;;12.26
76381;BMP280;65202;52.520;10.528;2023-03-14T09:56:14;98375.19;;;12.27
76381;BMP280;65202;52.520;10.528;2023-03-14T09:58:51;98384.38;;;12.46
76381;BMP280;65202;52.520;10.528;2023-03-14T10:01:28;98377.66;;;12.84
76381;BMP280;65202;52.520;10.528;2023-03-14T10:04:06;98382.72;;;12.42
76381;BMP280;65202;52.520;10.528;2023-03-14T10:06:40;98383.56;;;12.59
76381;BMP280;65202;52.520;10.528;2023-03-14T10:09:19;98378.56;;;12.41
76381;BMP280;65202;52.520;10.528;2023-03-14T10:11:55;98377.69;;;12.32
76381;BMP280;65202;52.520;10.528;2023-03-14T10:14:35;98387.72;;;12.70
76381;BMP280;65202;52.520;10.528;2023-03-14T10:17:10;98376.00;;;12.90
76381;BMP280;65202;52.520;10.528;2023-03-14T10:19:59;98371.00;;;12.65
76381;BMP280;65202;52.520;10.528;2023-03-14T10:22:29;98376.84;;;12.71
76381;BMP280;65202;52.520;10.528;2023-03-14T10:25:06;98378.53;;;12.38
76381;BMP280;65202;52.520;10.528;2023-03-14T10:27:52;98378.53;;;12.28
76381;BMP280;65202;52.520;10.528;2023-03-14T10:30:44;98389.41;;;12.88
76381;BMP280;65202;52.520;10.528;2023-03-14T10:35:45;98377.94;;;14.17
76381;BMP280;65202;52.520;10.528;2023-03-14T10:38:18;98375.75;;;13.60
76381;BMP280;65202;52.520;10.528;2023-03-14T10:40:47;98379.91;;;13.61
76381;BMP280;65202;52.520;10.528;2023-03-14T10:43:20;98372.41;;;13.57
76381;BMP280;65202;52.520;10.528;2023-03-14T10:45:58;98366.16;;;14.20
76381;BMP280;65202;52.520;10.528;2023-03-14T10:48:37;98361.09;;;14.25
76381;BMP280;65202;52.520;10.528;2023-03-14T10:53:58;98364.13;;;13.34
76381;BMP280;65202;52.520;10.528;2023-03-14T10:56:34;98367.47;;;13.40
76381;BMP280;65202;52.520;10.528;2023-03-14T10:59:07;98362.31;;;13.64
76381;BMP280;65202;52.520;10.528;2023-03-14T11:02:27;98375.63;;;13.80
76381;BMP280;65202;52.520;10.528;2023-03-14T11:05:18;98353.13;;;13.57
76381;BMP280;65202;52.520;10.528;2023-03-14T11:07:57;98359.97;;;13.31
76381;BMP280;65202;52.520;10.528;2023-03-14T11:10:39;98363.34;;;13.22
76381;BMP280;65202;52.520;10.528;2023-03-14T11:13:16;98348.31;;;13.04
76381;BMP280;65202;52.520;10.528;2023-03-14T11:16:09;98356.69;;;13.13
76381;BMP280;65202;52.520;10.528;2023-03-14T11:21:43;98364.28;;;12.89
76381;BMP280;65202;52.520;10.528;2023-03-14T11:24:35;98374.31;;;12.91
76381;BMP280;65202;52.520;10.528;2023-03-14T11:27:36;98373.50;;;12.89
76381;BMP280;65202;52.520;10.528;2023-03-14T11:30:23;98375.16;;;12.87
76381;BMP280;65202;52.520;10.528;2023-03-14T11:33:11;98376.78;;;12.85
76381;BMP280;65202;52.520;10.528;2023-03-14T11:35:49;98374.31;;;12.80
76381;BMP280;65202;52.520;10.528;2023-03-14T11:38:38;98368.47;;;12.63
76381;BMP280;65202;52.520;10.528;2023-03-14T11:41:41;98359.28;;;12.73
76381;BMP280;65202;52.520;10.528;2023-03-14T11:44:33;98359.22;;;13.04
76381;BMP280;65202;52.520;10.528;2023-03-14T11:47:14;98351.59;;;13.29
76381;BMP280;65202;52.520;10.528;2023-03-14T11:50:01;98349.88;;;13.36
76381;BMP280;65202;52.520;10.528;2023-03-14T11:52:53;98347.34;;;13.42
76381;BMP280;65202;52.520;10.528;2023-03-14T11:55:35;98341.56;;;13.26
76381;BMP280;65202;52.520;10.528;2023-03-14T11:58:24;98350.03;;;12.90
76381;BMP280;65202;52.520;10.528;2023-03-14T12:00:55;98376.00;;;12.90
76381;BMP280;65202;52.520;10.528;2023-03-14T12:03:43;98443.31;;;11.15
76381;BMP280;65202;52.520;10.528;2023-03-14T12:06:49;98462.91;;;9.74
76381;BMP280;65202;52.520;10.528;2023-03-14T12:09:20;98470.47;;;9.80
76381;BMP280;65202;52.520;10.528;2023-03-14T12:12:01;98501.09;;;9.67
76381;BMP280;65202;52.520;10.528;2023-03-14T12:14:33;98495.97;;;9.55
76381;BMP280;65202;52.520;10.528;2023-03-14T12:17:24;98523.09;;;9.30
76381;BMP280;65202;52.520;10.528;2023-03-14T12:20:17;98535.16;;;9.03
76381;BMP280;65202;52.520;10.528;2023-03-14T12:22:47;98557.19;;;8.76
76381;BMP280;65202;52.520;10.528;2023-03-14T12:25:23;98554.81;;;8.36
76381;BMP280;65202;52.520;10.528;2023-03-14T12:30:34;98579.41;;;8.18
76381;BMP280;65202;52.520;10.528;2023-03-14T12:38:43;98618.59;;;7.89
76381;BMP280;65202;52.520;10.528;2023-03-14T12:47:00;98677.09;;;7.69
76381;BMP280;65202;52.520;10.528;2023-03-14T12:50:07;98698.84;;;7.76
76381;BMP280;65202;52.520;10.528;2023-03-14T12:56:20;98740.97;;;7.33
76381;BMP280;65202;52.520;10.528;2023-03-14T12:59:21;98759.91;;;6.97
76381;BMP280;65202;52.520;10.528;2023-03-14T13:04:47;98775.78;;;7.02
76381;BMP280;65202;52.520;10.528;2023-03-14T13:07:31;98793.97;;;7.63
76381;BMP280;65202;52.520;10.528;2023-03-14T13:13:03;98813.66;;;6.92
76381;BMP280;65202;52.520;10.528;2023-03-14T13:15:43;98822.53;;;6.57
76381;BMP280;65202;52.520;10.528;2023-03-14T13:18:16;98836.19;;;6.97
76381;BMP280;65202;52.520;10.528;2023-03-14T13:20:51;98853.19;;;6.56
76381;BMP280;65202;52.520;10.528;2023-03-14T13:23:30;98856.84;;;6.94
76381;BMP280;65202;52.520;10.528;2023-03-14T13:26:00;98882.53;;;6.67
76381;BMP280;65202;52.520;10.528;2023-03-14T13:28:30;98878.22;;;6.35
76381;BMP280;65202;52.520;10.528;2023-03-14T13:31:02;98876.09;;;6.74
76381;BMP280;65202;52.520;10.528;2023-03-14T13:33:32;98888.97;;;6.34
76381;BMP280;65202;52.520;10.528;2023-03-14T13:36:04;98901.75;;;6.20
76381;BMP280;65202;52.520;10.528;2023-03-14T13:38:35;98932.63;;;6.28
76381;BMP280;65202;52.520;10.528;2023-03-14T13:41:07;98942.41;;;6.22
76381;BMP280;65202;52.520;10.528;2023-03-14T13:43:43;98945.72;;;6.47
76381;BMP280;65202;52.520;10.528;2023-03-14T13:46:16;98962.56;;;6.31
76381;BMP280;65202;52.520;10.528;2023-03-14T13:48:49;98958.09;;;6.98
76381;BMP280;65202;52.520;10.528;2023-03-14T13:51:21;98962.47;;;6.79
76381;BMP280;65202;52.520;10.528;2023-03-14T13:53:54;98982.03;;;6.44
76381;BMP280;65202;52.520;10.528;2023-03-14T13:56:24;99007.22;;;6.54
76381;BMP280;65202;52.520;10.528;2023-03-14T13:58:54;99022.59;;;6.43
76381;BMP280;65202;52.520;10.528;2023-03-14T14:01:32;99042.97;;;6.58
76381;BMP280;65202;52.520;10.528;2023-03-14T14:04:07;99034.25;;;6.44
76381;BMP280;65202;52.520;10.528;2023-03-14T14:06:56;99048.81;;;6.10
76381;BMP280;65202;52.520;10.528;2023-03-14T14:09:37;99062.59;;;6.25
76381;BMP280;65202;52.520;10.528;2023-03-14T14:12:12;99070.91;;;6.26
76381;BMP280;65202;52.520;10.528;2023-03-14T14:18:04;99092.69;;;6.58
76381;BMP280;65202;52.520;10.528;2023-03-14T14:20:43;99102.75;;;6.14
76381;BMP280;65202;52.520;10.528;2023-03-14T14:23:19;99097.59;;;6.55
76381;BMP280;65202;52.520;10.528;2023-03-14T14:25:53;99102.41;;;6.27
76381;BMP280;65202;52.520;10.528;2023-03-14T14:28:28;99109.44;;;6.15
76381;BMP280;65202;52.520;10.528;2023-03-14T14:31:22;99128.53;;;6.39
76381;BMP280;65202;52.520;10.528;2023-03-14T14:33:57;99148.34;;;6.15
76381;BMP280;65202;52.520;10.528;2023-03-14T14:36:38;99150.63;;;6.32
76381;BMP280;65202;52.520;10.528;2023-03-14T14:39:19;99163.53;;;6.22
76381;BMP280;65202;52.520;10.528;2023-03-14T14:41:54;99179.63;;;6.33
76381;BMP280;65202;52.520;10.528;2023-03-14T14:44:29;99180.97;;;6.24
76381;BMP280;65202;52.520;10.528;2023-03-14T14:47:01;99190.81;;;6.21
76381;BMP280;65202;52.520;10.528;2023-03-14T14:49:31;99209.31;;;6.28
76381;BMP280;65202;52.520;10.528;2023-03-14T14:52:03;99220.91;;;5.65
76381;BMP280;65202;52.520;10.528;2023-03-14T14:54:47;99231.25;;;5.35
76381;BMP280;65202;52.520;10.528;2023-03-14T14:57:26;99250.31;;;5.57
76381;BMP280;65202;52.520;10.528;2023-03-14T15:00:02;99256.09;;;5.96
76381;BMP280;65202;52.520;10.528;2023-03-14T15:02:44;99252.34;;;6.06
76381;BMP280;65202;52.520;10.528;2023-03-14T15:05:19;99262.88;;;6.00
76381;BMP280;65202;52.520;10.528;2023-03-14T15:07:47;99257.50;;;5.69